createdAt,value
2023-02-14T00:01:20.640Z,11.93
2023-02-14T00:03:49.408Z,12.45
2023-02-14T00:06:16.869Z,11.23
2023-02-14T00:08:44.917Z,11.48
2023-02-14T00:11:14.140Z,12.68
2023-02-14T00:14:01.325Z,10.00
2023-02-14T00:16:28.498Z,11.15
2023-02-14T00:19:04.581Z,10.35
2023-02-14T00:21:38.216Z,11.13
2023-02-14T00:24:15.305Z,9.73
2023-02-14T00:26:43.203Z,10.20
2023-02-14T00:29:15.486Z,11.40
2023-02-14T00:31:44.138Z,10.77
2023-02-14T00:34:12.096Z,11.27
2023-02-14T00:36:39.476Z,11.65
2023-02-14T00:39:09.952Z,10.75
2023-02-14T00:41:38.296Z,10.27
2023-02-14T00:44:06.904Z,11.65
2023-02-14T00:46:34.893Z,12.20
2023-02-14T00:49:02.128Z,10.75
2023-02-14T00:51:29.683Z,10.52
2023-02-14T00:53:56.996Z,12.25
2023-02-14T00:56:24.354Z,8.98
2023-02-14T00:58:51.523Z,10.40
2023-02-14T01:01:19.843Z,10.32
2023-02-14T01:03:47.251Z,11.23
2023-02-14T01:06:14.939Z,10.23
2023-02-14T01:08:42.257Z,10.48
2023-02-14T01:11:30.090Z,9.10
2023-02-14T01:13:58.648Z,10.45
2023-02-14T01:16:28.362Z,11.02
2023-02-14T01:18:56.537Z,10.52
2023-02-14T01:21:27.836Z,10.27
2023-02-14T01:23:59.842Z,9.98
2023-02-14T01:26:28.748Z,10.40
2023-02-14T01:28:57.087Z,10.20
2023-02-14T01:31:29.713Z,10.63
2023-02-14T01:33:58.334Z,9.98
2023-02-14T01:36:32.482Z,9.98
2023-02-14T01:39:03.969Z,9.65
2023-02-14T01:41:34.145Z,8.50
2023-02-14T01:44:04.582Z,10.07
2023-02-14T01:46:35.280Z,10.00
2023-02-14T01:49:20.616Z,9.38
2023-02-14T01:51:53.575Z,8.20
2023-02-14T01:54:24.465Z,9.82
2023-02-14T01:56:57.813Z,9.82
2023-02-14T01:59:32.418Z,9.25
2023-02-14T02:02:00.309Z,8.70
2023-02-14T02:04:35.101Z,9.88
2023-02-14T02:07:07.636Z,8.68
2023-02-14T02:09:43.244Z,9.52
2023-02-14T02:12:10.737Z,9.60
2023-02-14T02:14:38.176Z,10.23
2023-02-14T02:17:43.990Z,9.63
2023-02-14T02:20:51.416Z,10.75
2023-02-14T02:23:57.588Z,8.82
2023-02-14T02:26:38.480Z,9.20
2023-02-14T02:29:45.637Z,11.30
2023-02-14T02:32:43.329Z,9.10
2023-02-14T02:35:35.284Z,9.18
2023-02-14T02:38:30.590Z,8.85
2023-02-14T02:41:35.670Z,9.63
2023-02-14T02:44:29.535Z,9.90
2023-02-14T02:47:22.839Z,9.68
2023-02-14T02:50:51.867Z,8.57
2023-02-14T02:53:34.999Z,9.65
2023-02-14T02:56:29.666Z,10.98
2023-02-14T02:59:05.211Z,9.35
2023-02-14T03:01:40.242Z,10.10
2023-02-14T03:04:30.767Z,10.60
2023-02-14T03:06:59.962Z,9.93
2023-02-14T03:09:28.713Z,9.90
2023-02-14T03:12:10.656Z,10.75
2023-02-14T03:15:07.511Z,8.77
2023-02-14T03:18:08.759Z,9.73
2023-02-14T03:21:19.302Z,9.52
2023-02-14T03:23:56.329Z,8.02
2023-02-14T03:26:49.981Z,9.30
2023-02-14T03:29:54.239Z,9.13
2023-02-14T03:32:49.442Z,9.13
2023-02-14T03:35:31.495Z,8.88
2023-02-14T03:38:11.933Z,9.88
2023-02-14T03:40:58.172Z,8.38
2023-02-14T03:43:34.937Z,9.23
2023-02-14T03:46:15.242Z,8.30
2023-02-14T03:48:44.701Z,8.15
2023-02-14T03:51:15.218Z,9.35
2023-02-14T03:53:48.172Z,8.15
2023-02-14T03:56:38.566Z,8.30
2023-02-14T03:59:21.005Z,8.98
2023-02-14T04:02:17.639Z,9.20
2023-02-14T04:04:48.482Z,8.02
2023-02-14T04:07:22.692Z,9.52
2023-02-14T04:09:50.638Z,8.18
2023-02-14T04:12:26.463Z,8.82
2023-02-14T04:14:59.688Z,7.15
2023-02-14T04:17:45.021Z,7.72
2023-02-14T04:20:12.372Z,7.90
2023-02-14T04:22:39.532Z,8.50
2023-02-14T04:25:06.857Z,9.20
2023-02-14T04:27:33.955Z,8.10
2023-02-14T04:30:01.106Z,9.07
2023-02-14T04:32:28.348Z,9.25
2023-02-14T04:34:55.445Z,7.72
2023-02-14T04:37:22.580Z,7.90
2023-02-14T04:39:49.681Z,8.52
2023-02-14T04:42:17.152Z,7.30
2023-02-14T04:44:44.254Z,8.52
2023-02-14T04:47:11.377Z,8.63
2023-02-14T04:49:38.481Z,8.55
2023-02-14T04:52:06.263Z,7.75
2023-02-14T04:54:33.727Z,7.88
2023-02-14T04:57:00.834Z,8.35
2023-02-14T04:59:27.994Z,7.97
2023-02-14T05:01:55.341Z,8.13
2023-02-14T05:04:22.517Z,9.10
2023-02-14T05:06:49.648Z,7.85
2023-02-14T05:09:16.778Z,9.05
2023-02-14T05:11:43.896Z,8.30
2023-02-14T05:14:11.129Z,7.75
2023-02-14T05:16:38.702Z,8.45
2023-02-14T05:19:05.912Z,7.97
2023-02-14T05:21:33.199Z,8.40
2023-02-14T05:24:01.291Z,8.65
2023-02-14T05:26:28.569Z,8.00
2023-02-14T05:28:55.895Z,8.35
2023-02-14T05:31:23.150Z,7.57
2023-02-14T05:33:50.372Z,8.23
2023-02-14T05:36:17.539Z,8.02
2023-02-14T05:38:44.874Z,7.05
2023-02-14T05:41:12.020Z,8.82
2023-02-14T05:43:39.352Z,7.97
2023-02-14T05:46:06.580Z,9.45
2023-02-14T05:48:34.494Z,8.88
2023-02-14T05:51:10.929Z,10.93
2023-02-14T05:53:38.660Z,8.60
2023-02-14T05:56:06.770Z,9.02
2023-02-14T05:58:34.159Z,9.32
2023-02-14T06:01:02.071Z,8.45
2023-02-14T06:03:29.370Z,8.60
2023-02-14T06:05:56.446Z,9.05
2023-02-14T06:08:23.623Z,7.75
2023-02-14T06:10:50.723Z,8.30
2023-02-14T06:13:17.875Z,9.27
2023-02-14T06:15:45.110Z,8.60
2023-02-14T06:18:12.322Z,8.57
2023-02-14T06:20:39.427Z,8.30
2023-02-14T06:23:06.622Z,7.50
2023-02-14T06:25:34.072Z,9.32
2023-02-14T06:28:01.405Z,8.80
2023-02-14T06:30:28.951Z,8.98
2023-02-14T06:32:56.556Z,9.35
2023-02-14T06:35:23.759Z,9.00
2023-02-14T06:37:51.024Z,9.02
2023-02-14T06:40:19.729Z,8.73
2023-02-14T06:42:46.998Z,11.75
2023-02-14T06:45:14.136Z,10.45
2023-02-14T06:47:41.352Z,8.85
2023-02-14T06:50:11.580Z,10.18
2023-02-14T06:52:39.068Z,9.80
2023-02-14T06:55:06.656Z,11.27
2023-02-14T06:57:33.866Z,9.43
2023-02-14T07:00:00.992Z,10.52
2023-02-14T07:02:28.320Z,11.55
2023-02-14T07:04:55.400Z,9.52
2023-02-14T07:07:22.487Z,9.50
2023-02-14T07:09:49.645Z,9.35
2023-02-14T07:12:16.734Z,10.70
2023-02-14T07:14:43.860Z,9.43
2023-02-14T07:17:10.967Z,9.50
2023-02-14T07:19:38.178Z,9.43
2023-02-14T07:22:05.322Z,10.48
2023-02-14T07:24:32.444Z,9.20
2023-02-14T07:26:59.616Z,10.80
2023-02-14T07:29:26.695Z,9.90
2023-02-14T07:31:53.922Z,10.32
2023-02-14T07:34:21.101Z,11.13
2023-02-14T07:36:48.253Z,10.70
2023-02-14T07:39:15.364Z,10.63
2023-02-14T07:41:42.489Z,9.73
2023-02-14T07:44:13.637Z,10.60
2023-02-14T07:46:40.767Z,11.20
2023-02-14T07:49:08.134Z,12.82
2023-02-14T07:51:35.285Z,12.75
2023-02-14T07:54:02.417Z,11.05
2023-02-14T07:56:29.717Z,10.80
2023-02-14T07:58:56.802Z,11.38
2023-02-14T08:01:24.171Z,11.40
2023-02-14T08:03:52.172Z,11.98
2023-02-14T08:06:20.229Z,13.63
2023-02-14T08:08:47.767Z,13.43
2023-02-14T08:11:33.774Z,13.43
2023-02-14T08:14:01.099Z,12.65
2023-02-14T08:16:28.358Z,13.10
2023-02-14T08:18:55.755Z,12.75
2023-02-14T08:21:22.846Z,13.98
2023-02-14T08:23:49.961Z,15.63
2023-02-14T08:26:17.403Z,13.50
2023-02-14T08:28:45.046Z,14.43
2023-02-14T08:31:12.594Z,15.95
2023-02-14T08:33:39.835Z,15.18
2023-02-14T08:36:07.110Z,14.60
2023-02-14T08:38:34.291Z,15.77
2023-02-14T08:41:04.509Z,15.20
2023-02-14T08:43:34.448Z,14.77
2023-02-14T08:46:02.046Z,14.38
2023-02-14T08:48:29.476Z,14.07
2023-02-14T08:50:56.776Z,16.20
2023-02-14T08:53:24.317Z,14.68
2023-02-14T08:55:51.458Z,15.95
2023-02-14T08:58:18.551Z,15.00
2023-02-14T09:00:46.008Z,13.70
2023-02-14T09:03:13.168Z,14.35
2023-02-14T09:05:40.366Z,15.88
2023-02-14T09:08:07.914Z,16.27
2023-02-14T09:10:35.115Z,15.88
2023-02-14T09:13:02.246Z,16.65
2023-02-14T09:15:29.711Z,17.27
2023-02-14T09:17:56.797Z,18.08
2023-02-14T09:20:24.063Z,18.17
2023-02-14T09:22:51.585Z,16.95
2023-02-14T09:25:18.780Z,16.85
2023-02-14T09:27:45.948Z,14.82
2023-02-14T09:30:14.202Z,16.17
2023-02-14T09:32:41.316Z,16.38
2023-02-14T09:35:08.547Z,14.73
2023-02-14T09:37:35.582Z,14.15
2023-02-14T09:40:03.003Z,16.65
2023-02-14T09:42:35.603Z,15.45
2023-02-14T09:45:16.683Z,14.27
2023-02-14T09:47:52.082Z,14.02
2023-02-14T09:50:28.547Z,13.90
2023-02-14T09:53:06.309Z,13.25
2023-02-14T09:55:48.681Z,11.85
2023-02-14T09:58:23.476Z,13.52
2023-02-14T10:01:05.346Z,12.88
2023-02-14T10:04:09.811Z,13.63
2023-02-14T10:06:53.101Z,13.27
2023-02-14T10:09:40.612Z,12.05
2023-02-14T10:12:20.519Z,12.05
2023-02-14T10:14:48.529Z,12.13
2023-02-14T10:17:44.742Z,12.40
2023-02-14T10:20:37.290Z,11.70
2023-02-14T10:23:31.962Z,12.20
2023-02-14T10:26:05.994Z,12.35
2023-02-14T10:28:39.955Z,11.93
2023-02-14T10:31:25.294Z,12.40
2023-02-14T10:34:26.155Z,11.95
2023-02-14T10:37:11.829Z,11.48
2023-02-14T10:40:15.991Z,11.90
2023-02-14T10:43:19.637Z,12.23
2023-02-14T10:46:20.780Z,12.03
2023-02-14T10:49:16.123Z,12.73
2023-02-14T10:51:56.025Z,11.30
2023-02-14T10:54:35.821Z,11.90
2023-02-14T10:57:12.518Z,11.85
2023-02-14T11:00:07.970Z,13.23
2023-02-14T11:02:43.517Z,12.85
2023-02-14T11:05:35.745Z,12.98
2023-02-14T11:08:15.146Z,12.30
2023-02-14T11:10:42.491Z,12.30
2023-02-14T11:13:38.879Z,13.10
2023-02-14T11:16:14.173Z,13.38
2023-02-14T11:18:41.902Z,12.40
2023-02-14T11:21:14.735Z,13.82
2023-02-14T11:23:48.351Z,13.07
2023-02-14T11:26:31.495Z,14.93
2023-02-14T11:29:02.984Z,11.75
2023-02-14T11:31:38.196Z,12.32
2023-02-14T11:34:34.073Z,12.38
2023-02-14T11:37:01.335Z,12.52
2023-02-14T11:39:34.861Z,12.03
2023-02-14T11:42:05.241Z,13.15
2023-02-14T11:44:36.842Z,12.63
2023-02-14T11:47:34.919Z,14.35
2023-02-14T11:50:22.069Z,12.82
2023-02-14T11:52:55.650Z,13.10
2023-02-14T11:55:28.966Z,13.13
2023-02-14T11:57:57.747Z,12.75
2023-02-14T12:00:27.012Z,13.15
2023-02-14T12:02:55.773Z,12.93
2023-02-14T12:05:43.342Z,12.97
2023-02-14T12:08:11.088Z,12.60
2023-02-14T12:10:39.961Z,13.48
2023-02-14T12:13:12.784Z,13.60
2023-02-14T12:15:42.781Z,13.32
2023-02-14T12:18:21.714Z,13.07
2023-02-14T12:21:04.455Z,12.70
2023-02-14T12:24:04.313Z,12.73
2023-02-14T12:26:32.207Z,13.55
2023-02-14T12:29:10.401Z,12.85
2023-02-14T12:31:37.654Z,12.70
2023-02-14T12:34:05.521Z,13.02
2023-02-14T12:37:12.205Z,12.05
2023-02-14T12:40:10.886Z,11.75
2023-02-14T12:43:15.808Z,11.68
2023-02-14T12:45:58.642Z,11.93
2023-02-14T12:48:47.301Z,11.80
2023-02-14T12:51:29.373Z,12.80
2023-02-14T12:54:25.744Z,13.10
2023-02-14T12:57:19.006Z,12.75
2023-02-14T13:00:12.290Z,11.77
2023-02-14T13:03:16.304Z,12.63
2023-02-14T13:05:50.089Z,13.05
2023-02-14T13:08:40.525Z,11.75
2023-02-14T13:11:39.874Z,12.85
2023-02-14T13:14:39.886Z,11.97
2023-02-14T13:17:39.731Z,13.05
2023-02-14T13:20:37.576Z,12.90
2023-02-14T13:23:30.783Z,11.77
2023-02-14T13:26:05.934Z,13.52
2023-02-14T13:28:34.164Z,11.87
2023-02-14T13:31:01.894Z,12.05
2023-02-14T13:33:39.020Z,11.70
2023-02-14T13:36:12.902Z,11.98
2023-02-14T13:38:51.083Z,12.57
2023-02-14T13:41:19.888Z,12.13
2023-02-14T13:43:52.384Z,12.65
2023-02-14T13:46:47.099Z,11.85
2023-02-14T13:49:34.567Z,11.95
2023-02-14T13:52:04.966Z,11.60
2023-02-14T13:54:38.010Z,11.77
2023-02-14T13:57:33.489Z,12.05
2023-02-14T14:00:19.050Z,11.43
2023-02-14T14:02:52.738Z,11.35
2023-02-14T14:05:40.478Z,12.43
2023-02-14T14:08:23.464Z,12.47
2023-02-14T14:10:57.586Z,11.40
2023-02-14T14:13:43.142Z,11.95
2023-02-14T14:16:36.583Z,11.10
2023-02-14T14:19:29.806Z,11.43
2023-02-14T14:22:07.477Z,11.20
2023-02-14T14:24:37.902Z,11.68
2023-02-14T14:27:24.266Z,11.07
2023-02-14T14:30:07.651Z,11.60
2023-02-14T14:32:38.158Z,10.40
2023-02-14T14:35:25.711Z,10.60
2023-02-14T14:37:56.929Z,10.88
2023-02-14T14:40:34.785Z,11.05
2023-02-14T14:43:21.701Z,11.23
2023-02-14T14:45:52.791Z,12.75
2023-02-14T14:48:38.576Z,14.03
2023-02-14T14:51:22.491Z,11.70
2023-02-14T14:53:56.747Z,10.85
2023-02-14T14:56:31.136Z,11.85
2023-02-14T14:59:20.042Z,12.15
2023-02-14T15:01:48.005Z,10.07
2023-02-14T15:04:18.923Z,10.82
2023-02-14T15:06:48.783Z,12.70
2023-02-14T15:09:31.613Z,11.38
2023-02-14T15:12:22.013Z,11.25
2023-02-14T15:14:54.740Z,11.97
2023-02-14T15:17:33.050Z,11.75
2023-02-14T15:20:10.196Z,9.32
2023-02-14T15:22:50.286Z,10.55
2023-02-14T15:25:23.013Z,9.68
2023-02-14T15:27:51.487Z,10.13
2023-02-14T15:30:33.892Z,9.82
2023-02-14T15:33:03.557Z,8.77
2023-02-14T15:35:34.683Z,10.65
2023-02-14T15:38:05.842Z,9.70
2023-02-14T15:40:35.155Z,10.90
2023-02-14T15:43:46.999Z,10.40
2023-02-14T15:46:49.985Z,9.80
2023-02-14T15:49:23.312Z,11.38
2023-02-14T15:51:51.348Z,12.32
2023-02-14T15:54:37.361Z,13.13
2023-02-14T15:57:07.824Z,12.00
2023-02-14T15:59:37.202Z,11.68
2023-02-14T16:02:31.400Z,13.00
2023-02-14T16:05:28.175Z,13.00
2023-02-14T16:08:02.862Z,12.60
2023-02-14T16:10:39.616Z,12.65
2023-02-14T16:13:12.849Z,13.60
2023-02-14T16:15:58.760Z,13.13
2023-02-14T16:18:50.070Z,12.80
2023-02-14T16:21:31.276Z,13.40
2023-02-14T16:24:13.231Z,11.90
2023-02-14T16:26:45.015Z,13.07
2023-02-14T16:29:16.168Z,13.00
2023-02-14T16:32:14.741Z,13.52
2023-02-14T16:34:43.247Z,12.53
2023-02-14T16:37:29.454Z,13.10
2023-02-14T16:39:57.781Z,13.48
2023-02-14T16:42:25.170Z,12.10
2023-02-14T16:44:52.454Z,12.73
2023-02-14T16:47:21.416Z,14.67
2023-02-14T16:49:50.632Z,12.57
2023-02-14T16:52:23.816Z,13.10
2023-02-14T16:54:52.171Z,12.40
2023-02-14T16:57:43.458Z,12.00
2023-02-14T17:00:11.810Z,11.33
2023-02-14T17:02:39.108Z,12.95
2023-02-14T17:05:06.941Z,13.73
2023-02-14T17:07:34.213Z,12.25
2023-02-14T17:10:07.444Z,12.95
2023-02-14T17:12:41.089Z,13.13
2023-02-14T17:15:14.210Z,14.25
2023-02-14T17:17:44.084Z,14.20
2023-02-14T17:20:12.810Z,16.23
2023-02-14T17:22:42.614Z,14.90
2023-02-14T17:25:10.362Z,14.37
2023-02-14T17:27:37.693Z,15.68
2023-02-14T17:30:06.027Z,15.52
2023-02-14T17:32:35.348Z,14.00
2023-02-14T17:35:04.184Z,14.40
2023-02-14T17:37:32.641Z,15.13
2023-02-14T17:40:00.377Z,15.68
2023-02-14T17:42:27.781Z,16.65
2023-02-14T17:44:54.897Z,14.57
2023-02-14T17:47:22.114Z,15.70
2023-02-14T17:49:49.543Z,17.90
2023-02-14T17:52:17.055Z,16.05
2023-02-14T17:54:44.316Z,17.95
2023-02-14T17:57:12.730Z,17.83
2023-02-14T17:59:40.109Z,18.42
2023-02-14T18:02:07.631Z,18.07
2023-02-14T18:04:37.201Z,17.08
2023-02-14T18:07:06.040Z,17.38
2023-02-14T18:09:33.303Z,17.60
2023-02-14T18:12:00.396Z,16.88
2023-02-14T18:14:27.645Z,18.60
2023-02-14T18:16:54.876Z,17.63
2023-02-14T18:19:22.147Z,16.50
2023-02-14T18:21:49.361Z,18.38
2023-02-14T18:24:16.615Z,19.00
2023-02-14T18:26:44.845Z,21.23
2023-02-14T18:29:12.741Z,22.25
2023-02-14T18:31:42.533Z,24.35
2023-02-14T18:34:10.116Z,21.88
2023-02-14T18:36:39.952Z,23.38
2023-02-14T18:39:08.762Z,23.20
2023-02-14T18:41:36.000Z,20.98
2023-02-14T18:44:03.989Z,21.05
2023-02-14T18:46:35.551Z,23.08
2023-02-14T18:49:07.128Z,20.95
2023-02-14T18:51:39.378Z,20.00
2023-02-14T18:54:07.539Z,20.60
2023-02-14T18:56:38.025Z,21.98
2023-02-14T18:59:10.601Z,21.73
2023-02-14T19:01:43.346Z,22.15
2023-02-14T19:04:12.347Z,18.83
2023-02-14T19:06:42.150Z,18.77
2023-02-14T19:09:12.868Z,17.30
2023-02-14T19:11:40.734Z,17.75
2023-02-14T19:14:11.123Z,18.75
2023-02-14T19:16:50.183Z,18.80
2023-02-14T19:19:18.127Z,19.90
2023-02-14T19:21:45.877Z,21.35
2023-02-14T19:24:13.076Z,19.00
2023-02-14T19:26:40.800Z,20.33
2023-02-14T19:29:15.323Z,20.70
2023-02-14T19:31:48.262Z,20.13
2023-02-14T19:34:23.550Z,20.27
2023-02-14T19:36:52.945Z,20.50
2023-02-14T19:39:22.888Z,19.45
2023-02-14T19:41:51.262Z,19.30
2023-02-14T19:44:19.290Z,18.13
2023-02-14T19:46:47.876Z,19.55
2023-02-14T19:49:19.274Z,19.67
2023-02-14T19:51:48.919Z,21.73
2023-02-14T19:54:16.202Z,19.85
2023-02-14T19:56:46.494Z,20.23
2023-02-14T19:59:19.923Z,20.30
2023-02-14T20:01:56.503Z,20.02
2023-02-14T20:04:28.326Z,17.70
2023-02-14T20:06:56.775Z,17.83
2023-02-14T20:09:25.593Z,18.48
2023-02-14T20:11:55.647Z,17.00
2023-02-14T20:14:47.154Z,20.25
2023-02-14T20:17:18.177Z,22.25
2023-02-14T20:19:45.501Z,24.00
2023-02-14T20:22:12.670Z,23.73
2023-02-14T20:24:39.843Z,22.08
2023-02-14T20:27:08.330Z,21.60
2023-02-14T20:29:38.849Z,23.23
2023-02-14T20:32:06.501Z,20.25
2023-02-14T20:34:33.920Z,20.70
2023-02-14T20:37:01.789Z,21.58
2023-02-14T20:39:34.613Z,21.33
2023-02-14T20:42:02.328Z,23.15
2023-02-14T20:44:30.202Z,22.75
2023-02-14T20:46:59.159Z,27.90
2023-02-14T20:49:28.870Z,27.80
2023-02-14T20:51:56.850Z,28.50
2023-02-14T20:54:26.792Z,26.48
2023-02-14T20:56:55.100Z,28.02
2023-02-14T20:59:29.001Z,29.02
2023-02-14T21:01:58.690Z,27.85
2023-02-14T21:04:26.720Z,25.77
2023-02-14T21:06:54.608Z,24.60
2023-02-14T21:09:21.989Z,23.35
2023-02-14T21:11:50.449Z,19.45
2023-02-14T21:14:17.916Z,19.63
2023-02-14T21:16:45.475Z,20.55
2023-02-14T21:19:12.961Z,19.88
2023-02-14T21:21:42.699Z,19.60
2023-02-14T21:24:16.831Z,20.92
2023-02-14T21:26:48.186Z,21.52
2023-02-14T21:29:15.375Z,18.90
2023-02-14T21:31:43.317Z,23.60
2023-02-14T21:34:10.702Z,22.05
2023-02-14T21:36:37.907Z,20.63
2023-02-14T21:39:07.277Z,24.67
2023-02-14T21:41:35.669Z,22.92
2023-02-14T21:44:04.548Z,24.60
2023-02-14T21:46:36.772Z,23.88
2023-02-14T21:49:23.871Z,23.02
2023-02-14T21:51:53.184Z,21.83
2023-02-14T21:54:21.733Z,23.33
2023-02-14T21:56:49.838Z,21.52
2023-02-14T21:59:19.704Z,22.92
2023-02-14T22:01:46.952Z,22.88
2023-02-14T22:04:14.180Z,23.02
2023-02-14T22:06:42.733Z,21.23
2023-02-14T22:09:13.444Z,21.70
2023-02-14T22:11:41.035Z,21.05
2023-02-14T22:14:08.606Z,20.92
2023-02-14T22:16:36.950Z,21.38
2023-02-14T22:19:06.118Z,22.13
2023-02-14T22:21:33.739Z,22.63
2023-02-14T22:24:04.337Z,22.13
2023-02-14T22:26:38.854Z,20.88
2023-02-14T22:29:11.632Z,20.42
2023-02-14T22:31:42.504Z,22.55
2023-02-14T22:34:13.653Z,21.55
2023-02-14T22:36:44.169Z,19.92
2023-02-14T22:39:20.115Z,21.73
2023-02-14T22:41:50.043Z,20.70
2023-02-14T22:44:17.379Z,20.45
2023-02-14T22:46:47.677Z,19.83
2023-02-14T22:49:16.756Z,18.60
2023-02-14T22:51:45.684Z,19.25
2023-02-14T22:54:15.817Z,18.27
2023-02-14T22:56:46.720Z,22.67
2023-02-14T22:59:21.980Z,22.63
2023-02-14T23:01:51.564Z,22.33
2023-02-14T23:04:21.947Z,21.38
2023-02-14T23:06:49.572Z,19.85
2023-02-14T23:09:16.698Z,17.75
2023-02-14T23:11:45.551Z,19.65
2023-02-14T23:14:36.679Z,16.88
2023-02-14T23:17:14.542Z,17.40
2023-02-14T23:20:01.947Z,18.33
2023-02-14T23:22:33.517Z,16.50
2023-02-14T23:25:04.063Z,17.73
2023-02-14T23:27:44.801Z,18.55
2023-02-14T23:30:16.709Z,16.95
2023-02-14T23:32:44.387Z,15.70
2023-02-14T23:35:12.011Z,18.63
2023-02-14T23:37:39.362Z,17.45
2023-02-14T23:40:07.507Z,15.50
2023-02-14T23:42:34.698Z,16.35
2023-02-14T23:45:22.061Z,16.85
2023-02-14T23:47:49.263Z,16.00
2023-02-14T23:50:16.639Z,16.48
2023-02-14T23:52:44.618Z,15.20
2023-02-14T23:55:12.185Z,13.07
2023-02-14T23:57:39.596Z,15.15
